Hartshorne, Oklahoma
Current Conditions -  °F | °C
As of 11:53 AM on Wednesday 26 Nov 2014 (Local Time) from KMLC Reporting Station
Scattered Clouds Scattered Clouds  
Wind Chill: 55°   Ceiling: Unl
Heat Index: 55°   Visibility: 10mi
Dew Point: 31°   Wind: 15mph
Humidity: 40%   Direction: 350°N
Pressure: 30.15"   Gusts: 25mph
Location:  34.85°N, 95.56°W
Report Text: KMLC 261753Z AUTO 35013G22KT 10SM SCT110 13/M01 A3015 RMK AO2 SLP210 T01281006 10128 20039 50025
Loading
Personal Weather Stations






























Interactive Weather Map New forecast layout! Learn more

10-Day Weather Forecast

Advertisements
Track Severe Weather on mobile